Time;durP1;ratioP1;P1;durP2;ratioP2;P2;SDS_P1;SDS_P2;PMS_P1;PMS_P2;Temp;Humidity;BMP_temperature;BMP_pressure;BME280_temperature;BME280_humidity;BME280_pressure;Samples;Min_cycle;Max_cycle;Signal;HPM_P1;HPM_P2
2022/04/28 00:01:09;;;;;;;12.68;7.88;;;;;;;10.75;100.00;100607.03;5117897;27;20051;-74
2022/04/28 00:03:38;;;;;;;11.48;7.70;;;;;;;10.88;100.00;100589.38;5136597;27;20043;-74
2022/04/28 00:06:06;;;;;;;11.55;7.40;;;;;;;10.85;100.00;100594.03;5136349;27;20043;-73
2022/04/28 00:08:37;;;;;;;11.75;8.07;;;;;;;10.75;100.00;100596.38;5136429;27;20047;-73
2022/04/28 00:11:05;;;;;;;12.05;8.00;;;;;;;10.75;100.00;100580.34;5136159;27;20092;-73
2022/04/28 00:13:35;;;;;;;12.25;8.35;;;;;;;10.75;100.00;100583.03;5135837;27;20432;-73
2022/04/28 00:16:05;;;;;;;12.13;8.65;;;;;;;10.85;100.00;100578.91;5118023;27;20071;-73
2022/04/28 00:18:34;;;;;;;12.82;8.07;;;;;;;10.69;100.00;100585.16;5136017;27;20039;-74
2022/04/28 00:21:02;;;;;;;12.27;8.57;;;;;;;10.66;100.00;100586.19;5136286;27;20059;-73
2022/04/28 00:23:30;;;;;;;14.65;9.40;;;;;;;10.62;100.00;100587.31;5135819;27;20035;-74
2022/04/28 00:25:58;;;;;;;12.52;8.55;;;;;;;10.67;100.00;100587.91;5117545;27;20043;-74
2022/04/28 00:28:27;;;;;;;11.15;7.85;;;;;;;10.79;100.00;100581.03;5117171;27;20492;-75
2022/04/28 00:30:56;;;;;;;12.07;8.10;;;;;;;10.74;100.00;100586.63;5135700;27;20065;-73
2022/04/28 00:33:24;;;;;;;11.57;8.15;;;;;;;10.86;100.00;100585.94;5117271;27;20071;-75
2022/04/28 00:35:53;;;;;;;12.10;8.15;;;;;;;10.82;100.00;100580.88;5135855;27;20039;-74
2022/04/28 00:38:21;;;;;;;11.57;8.00;;;;;;;10.69;100.00;100591.34;5135728;27;20043;-74
2022/04/28 00:40:49;;;;;;;12.23;8.43;;;;;;;10.85;100.00;100586.91;5135762;27;20065;-74
2022/04/28 00:43:20;;;;;;;12.68;8.43;;;;;;;10.80;100.00;100583.63;5135591;27;20492;-74
2022/04/28 00:45:49;;;;;;;11.93;8.57;;;;;;;10.78;100.00;100588.19;5135854;27;20042;-74
2022/04/28 00:51:07;;;;;;;12.18;8.50;;;;;;;10.73;100.00;100595.59;5116999;27;20050;-75
2022/04/28 00:53:38;;;;;;;13.13;8.57;;;;;;;10.83;100.00;100594.13;5116524;27;20126;-75
2022/04/28 00:56:08;;;;;;;13.23;9.30;;;;;;;10.65;100.00;100592.47;5135471;27;20422;-74
2022/04/28 00:58:38;;;;;;;11.88;8.65;;;;;;;10.71;100.00;100593.94;5116931;27;20070;-74
2022/04/28 01:01:07;;;;;;;11.55;8.43;;;;;;;10.80;100.00;100599.63;5134423;27;20049;-74
2022/04/28 01:03:38;;;;;;;12.70;8.40;;;;;;;10.81;100.00;100590.69;5116601;27;20115;-74
2022/04/28 01:06:07;;;;;;;13.80;8.88;;;;;;;10.74;100.00;100594.66;5135191;27;20125;-74
2022/04/28 01:08:35;;;;;;;14.25;8.48;;;;;;;10.68;100.00;100580.78;5135092;27;20047;-74
2022/04/28 01:11:04;;;;;;;13.57;8.98;;;;;;;10.66;100.00;100583.53;5135090;27;20074;-74
2022/04/28 01:13:35;;;;;;;12.00;8.65;;;;;;;10.78;100.00;100572.16;5134575;27;20039;-74
2022/04/28 01:16:04;;;;;;;14.05;9.10;;;;;;;10.69;100.00;100571.81;5134932;27;20035;-74
2022/04/28 01:18:33;;;;;;;13.10;8.73;;;;;;;10.65;100.00;100571.16;5116450;27;20119;-73
2022/04/28 01:21:04;;;;;;;12.38;8.32;;;;;;;10.74;100.00;100570.63;5134927;27;20120;-75
2022/04/28 01:23:33;;;;;;;14.90;8.85;;;;;;;10.76;100.00;100566.06;5134692;27;20042;-75
2022/04/28 01:26:02;;;;;;;12.35;8.65;;;;;;;10.69;100.00;100567.34;5116737;27;20087;-75
2022/04/28 01:28:32;;;;;;;12.00;8.30;;;;;;;10.80;100.00;100567.59;5116028;27;20381;-74
2022/04/28 01:31:01;;;;;;;11.68;8.18;;;;;;;10.88;100.00;100564.50;5116150;27;20070;-74
2022/04/28 01:33:30;;;;;;;13.65;8.13;;;;;;;10.78;100.00;100564.16;5134646;27;20377;-74
2022/04/28 01:35:58;;;;;;;13.43;8.50;;;;;;;10.89;100.00;100561.75;5134723;27;20046;-74
2022/04/28 01:38:28;;;;;;;12.65;8.10;;;;;;;10.97;100.00;100564.00;5134484;27;20068;-74
2022/04/28 01:40:56;;;;;;;13.57;8.63;;;;;;;10.91;100.00;100568.84;5134554;27;20058;-74
2022/04/28 01:43:26;;;;;;;12.75;7.78;;;;;;;10.95;100.00;100565.88;5134189;27;20043;-76
2022/04/28 01:45:54;;;;;;;12.32;7.72;;;;;;;10.90;100.00;100562.59;5134416;27;20054;-75
2022/04/28 01:48:23;;;;;;;13.23;7.82;;;;;;;10.84;100.00;100566.50;5134422;27;20046;-76
2022/04/28 01:56:20;;;;;;;11.55;7.70;;;;;;;10.71;100.00;100564.59;5116195;27;20058;-75
2022/04/28 01:58:48;;;;;;;13.40;8.85;;;;;;;10.84;100.00;100558.50;5134212;27;20039;-75
2022/04/28 02:01:17;;;;;;;12.82;8.80;;;;;;;10.81;100.00;100564.00;5134304;27;20440;-76
2022/04/28 02:03:45;;;;;;;13.25;8.15;;;;;;;10.82;100.00;100571.06;5134053;27;20443;-76
2022/04/28 02:06:13;;;;;;;11.10;8.35;;;;;;;10.74;100.00;100565.28;5115677;28;20070;-75
2022/04/28 02:08:44;;;;;;;13.88;8.68;;;;;;;10.69;100.00;100570.00;5134035;27;20130;-75
2022/04/28 02:11:13;;;;;;;12.45;8.40;;;;;;;10.73;100.00;100570.72;5133654;27;20043;-75
2022/04/28 02:13:42;;;;;;;11.82;8.43;;;;;;;10.83;100.00;100564.78;5133354;27;20092;-76
2022/04/28 02:16:11;;;;;;;12.15;8.50;;;;;;;10.70;100.00;100561.06;5134220;28;20035;-74
2022/04/28 02:18:39;;;;;;;12.77;7.40;;;;;;;10.69;100.00;100563.81;5133767;28;20043;-74
2022/04/28 02:21:07;;;;;;;13.32;8.45;;;;;;;10.65;100.00;100555.13;5133882;28;20047;-76
2022/04/28 02:23:36;;;;;;;15.00;8.77;;;;;;;10.67;100.00;100561.25;5134051;28;20471;-76
2022/04/28 02:26:05;;;;;;;12.52;9.00;;;;;;;10.48;100.00;100564.06;5134057;28;20036;-76
2022/04/28 02:28:33;;;;;;;13.20;8.68;;;;;;;10.58;100.00;100561.75;5133774;28;20043;-76
2022/04/28 02:31:01;;;;;;;13.27;9.35;;;;;;;10.58;100.00;100561.75;5134112;28;20575;-77
2022/04/28 02:33:30;;;;;;;12.90;9.07;;;;;;;10.70;100.00;100560.19;5133448;28;20429;-75
2022/04/28 02:35:58;;;;;;;14.25;9.02;;;;;;;10.62;100.00;100552.66;5133891;28;20045;-75
2022/04/28 02:38:26;;;;;;;12.77;8.75;;;;;;;10.71;100.00;100556.59;5115187;28;20051;-75
2022/04/28 02:40:55;;;;;;;14.00;8.48;;;;;;;10.76;100.00;100560.72;5133806;28;20510;-74
2022/04/28 02:43:24;;;;;;;12.85;8.23;;;;;;;10.74;100.00;100561.78;5133889;28;20038;-75
2022/04/28 02:45:53;;;;;;;12.75;8.45;;;;;;;10.72;100.00;100558.34;5133678;28;20043;-76
2022/04/28 02:48:22;;;;;;;10.70;7.85;;;;;;;10.71;100.00;100549.47;5115565;28;20047;-75
2022/04/28 02:50:50;;;;;;;12.52;8.18;;;;;;;10.67;100.00;100555.91;5133420;28;20043;-75
2022/04/28 02:53:19;;;;;;;10.73;7.72;;;;;;;10.65;100.00;100555.13;5133808;28;20039;-75
2022/04/28 02:55:47;;;;;;;12.23;7.70;;;;;;;10.57;100.00;100555.56;5115520;28;20051;-75
2022/04/28 02:58:15;;;;;;;11.23;7.47;;;;;;;10.54;100.00;100560.22;5115497;28;20483;-75
2022/04/28 03:00:45;;;;;;;10.73;6.60;;;;;;;10.62;100.00;100555.31;5133544;28;20096;-75
2022/04/28 03:03:13;;;;;;;10.25;7.10;;;;;;;10.61;100.00;100558.91;5133767;28;20036;-75
2022/04/28 03:11:17;;;;;;;9.43;6.90;;;;;;;10.48;100.00;100563.19;5133827;28;20118;-73
2022/04/28 03:13:45;;;;;;;9.77;6.85;;;;;;;10.46;100.00;100562.44;5133198;27;20039;-74
2022/04/28 03:16:14;;;;;;;10.32;6.72;;;;;;;10.39;100.00;100561.91;5115308;28;20066;-73
2022/04/28 03:18:44;;;;;;;12.32;6.40;;;;;;;10.50;100.00;100569.31;5114869;28;20047;-74
2022/04/28 03:21:15;;;;;;;10.38;6.50;;;;;;;10.60;100.00;100570.53;5133310;28;20058;-74
2022/04/28 03:23:44;;;;;;;9.45;6.68;;;;;;;10.61;100.00;100566.91;5133888;27;20071;-74
2022/04/28 03:26:12;;;;;;;10.00;6.80;;;;;;;10.56;100.00;100576.97;5118853;27;20058;-74
2022/04/28 03:28:40;;;;;;;12.98;7.55;;;;;;;10.57;100.00;100570.69;5136849;27;20051;-74
2022/04/28 03:31:08;;;;;;;9.77;6.50;;;;;;;10.52;100.00;100575.44;5118679;27;20125;-74
2022/04/28 03:33:38;;;;;;;11.40;7.57;;;;;;;10.57;100.00;100581.38;5136576;27;20039;-74
2022/04/28 03:36:50;;;;;;;11.02;7.55;;;;;;;10.61;100.00;100582.91;5137124;27;20484;-74
2022/04/28 03:38:55;;;;;;;11.68;8.27;;;;;;;10.40;100.00;100584.09;5129295;27;20115;-76
2022/04/28 03:41:23;;;;;;;11.68;7.43;;;;;;;10.52;100.00;100583.44;5126165;27;20096;-77
2022/04/28 03:43:52;;;;;;;11.63;7.95;;;;;;;10.49;100.00;100584.44;5118061;27;20526;-75
2022/04/28 03:46:21;;;;;;;12.40;7.60;;;;;;;10.69;100.00;100586.03;5136705;27;20046;-76
2022/04/28 03:48:51;;;;;;;11.77;7.53;;;;;;;10.62;100.00;100591.81;5136672;27;20299;-78
2022/04/28 03:51:19;;;;;;;11.82;7.70;;;;;;;10.60;100.00;100589.19;5136691;27;20389;-77
2022/04/28 03:53:48;;;;;;;13.55;8.23;;;;;;;10.50;100.00;100591.50;5136248;27;20070;-78
2022/04/28 03:56:16;;;;;;;14.25;8.38;;;;;;;10.69;100.00;100585.16;5118203;27;20047;-76
2022/04/28 03:58:45;;;;;;;11.60;7.90;;;;;;;10.70;100.00;100590.41;5117787;27;20051;-75
2022/04/28 04:01:13;;;;;;;11.38;8.27;;;;;;;10.45;100.00;100596.25;5136559;27;20100;-75
2022/04/28 04:03:42;;;;;;;14.90;9.52;;;;;;;10.51;100.00;100593.22;5117922;27;20078;-74
2022/04/28 04:06:11;;;;;;;13.52;8.20;;;;;;;10.50;100.00;100593.31;5117864;27;20555;-74
2022/04/28 04:08:39;;;;;;;15.38;8.48;;;;;;;10.49;100.00;100594.25;5117729;27;20070;-74
2022/04/28 04:11:08;;;;;;;12.75;8.93;;;;;;;10.43;100.00;100591.94;5136262;27;20035;-74
2022/04/28 04:13:36;;;;;;;12.95;9.00;;;;;;;10.39;100.00;100593.03;5135662;27;20118;-74
2022/04/28 04:16:05;;;;;;;13.55;8.27;;;;;;;10.42;100.00;100603.53;5136287;27;20070;-74
2022/04/28 04:18:34;;;;;;;12.00;8.80;;;;;;;10.38;100.00;100601.97;5135934;27;20175;-74
2022/04/28 04:21:02;;;;;;;13.77;9.43;;;;;;;10.42;100.00;100598.19;5117760;27;20492;-73
2022/04/28 04:23:32;;;;;;;12.00;8.35;;;;;;;10.56;100.00;100606.31;5136062;27;20499;-74
2022/04/28 04:26:01;;;;;;;13.13;8.93;;;;;;;10.43;100.00;100610.63;5135973;27;20039;-74
2022/04/28 04:28:30;;;;;;;12.98;9.02;;;;;;;10.47;100.00;100606.81;5136094;27;20100;-73
2022/04/28 04:33:44;;;;;;;12.93;8.75;;;;;;;10.53;100.00;100611.84;5117160;27;20126;-74
2022/04/28 04:36:12;;;;;;;12.27;8.98;;;;;;;10.61;100.00;100606.91;5116999;27;20047;-74
2022/04/28 04:38:42;;;;;;;12.93;8.90;;;;;;;10.59;100.00;100604.34;5116839;27;20051;-75
2022/04/28 04:41:11;;;;;;;14.23;8.60;;;;;;;10.57;100.00;100608.03;5135513;27;20047;-76
2022/04/28 04:43:39;;;;;;;12.23;8.35;;;;;;;10.68;100.00;100610.13;5116956;27;20509;-75
2022/04/28 04:46:08;;;;;;;13.18;8.65;;;;;;;10.55;100.00;100599.28;5117304;27;20049;-76
2022/04/28 04:48:38;;;;;;;13.23;8.55;;;;;;;10.80;100.00;100615.63;5116922;27;20487;-74
2022/04/28 04:51:07;;;;;;;11.25;8.35;;;;;;;10.75;100.00;100612.38;5117002;27;20078;-73
2022/04/28 04:53:35;;;;;;;14.18;8.20;;;;;;;10.69;100.00;100618.03;5117004;27;20047;-73
2022/04/28 04:56:05;;;;;;;14.73;9.15;;;;;;;10.84;100.00;100613.69;5135419;27;20041;-74
2022/04/28 04:58:34;;;;;;;13.23;9.10;;;;;;;10.69;100.00;100611.84;5134465;27;20373;-74
2022/04/28 05:01:04;;;;;;;12.82;9.10;;;;;;;10.60;100.00;100622.06;5114768;28;20498;-74
2022/04/28 05:03:33;;;;;;;12.93;8.75;;;;;;;10.75;100.00;100625.72;5096566;28;20055;-76
2022/04/28 05:06:01;;;;;;;12.35;8.95;;;;;;;10.81;100.00;100624.53;5114287;28;20131;-76
2022/04/28 05:08:30;;;;;;;14.05;8.40;;;;;;;10.80;100.00;100620.97;5114470;28;20045;-76
2022/04/28 05:10:58;;;;;;;10.88;7.55;;;;;;;10.92;100.00;100627.47;5114189;28;20579;-76
2022/04/28 05:13:28;;;;;;;11.45;7.80;;;;;;;10.95;100.00;100629.09;5096238;28;20047;-75
2022/04/28 05:15:56;;;;;;;10.80;7.88;;;;;;;10.88;100.00;100632.09;5095695;28;20086;-77
2022/04/28 05:18:24;;;;;;;11.25;7.28;;;;;;;10.88;100.00;100634.75;5096144;28;20043;-74
2022/04/28 05:20:52;;;;;;;12.85;8.05;;;;;;;10.73;100.00;100638.28;5114072;28;20043;-75
2022/04/28 05:23:21;;;;;;;11.00;7.72;;;;;;;10.84;100.00;100637.69;5096188;28;20138;-75
2022/04/28 05:25:50;;;;;;;10.90;7.55;;;;;;;10.81;100.00;100641.41;5114025;28;20471;-73
2022/04/28 05:28:18;;;;;;;13.10;7.80;;;;;;;10.62;100.00;100648.69;5114088;28;20139;-74
2022/04/28 05:30:49;;;;;;;10.88;7.88;;;;;;;10.73;100.00;100646.28;5095727;28;20082;-72
2022/04/28 05:33:19;;;;;;;12.13;7.30;;;;;;;10.85;100.00;100653.63;5113735;28;20443;-72
2022/04/28 05:35:48;;;;;;;10.82;7.68;;;;;;;11.03;100.00;100648.22;5095259;28;20484;-72
2022/04/28 05:38:16;;;;;;;10.25;7.63;;;;;;;11.02;100.00;100651.84;5113858;28;20039;-72
2022/04/28 05:40:45;;;;;;;11.30;7.65;;;;;;;11.02;100.00;100646.50;5113713;28;20130;-72
2022/04/28 05:46:01;;;;;;;11.40;7.75;;;;;;;11.01;100.00;100645.63;5113006;28;20062;-72
2022/04/28 05:48:34;;;;;;;9.98;7.32;;;;;;;11.14;100.00;100646.66;5095592;28;20085;-72
2022/04/28 05:51:08;;;;;;;13.75;8.10;;;;;;;10.85;100.00;100650.94;5095564;28;20105;-72
2022/04/28 05:53:37;;;;;;;10.43;7.32;;;;;;;11.20;100.00;100656.16;5113543;28;20415;-71
2022/04/28 05:56:05;;;;;;;12.95;8.15;;;;;;;11.21;100.00;100657.88;5095396;28;20071;-72
2022/04/28 05:58:33;;;;;;;12.02;7.63;;;;;;;11.03;100.00;100664.22;5095970;28;20079;-71
2022/04/28 06:01:03;;;;;;;12.57;7.75;;;;;;;11.07;100.00;100660.44;5095306;28;20044;-71
2022/04/28 06:03:31;;;;;;;11.70;7.68;;;;;;;11.10;100.00;100660.28;5095168;28;20461;-72
2022/04/28 06:06:00;;;;;;;12.15;7.40;;;;;;;11.26;100.00;100661.13;5104205;27;20096;-72
2022/04/28 06:08:29;;;;;;;11.82;8.18;;;;;;;11.22;100.00;100654.25;5134232;27;20472;-71
2022/04/28 06:10:58;;;;;;;11.95;8.07;;;;;;;11.39;100.00;100655.97;5115894;27;20054;-72
2022/04/28 06:13:26;;;;;;;13.57;8.25;;;;;;;11.57;100.00;100662.03;5134605;27;20043;-72
2022/04/28 06:15:58;;;;;;;11.73;7.88;;;;;;;11.75;100.00;100658.28;5115714;27;20082;-72
2022/04/28 06:18:28;;;;;;;10.77;6.55;;;;;;;11.80;100.00;100661.59;5115892;28;20079;-73
2022/04/28 06:20:56;;;;;;;11.20;8.05;;;;;;;11.82;100.00;100670.38;5134043;28;20063;-73
2022/04/28 06:23:24;;;;;;;13.63;8.35;;;;;;;11.84;100.00;100663.13;5115717;28;20051;-74
2022/04/28 06:25:52;;;;;;;12.57;8.40;;;;;;;11.76;100.00;100671.56;5134109;28;20059;-73
2022/04/28 06:28:21;;;;;;;16.10;8.85;;;;;;;11.90;100.00;100669.94;5115402;28;20051;-75
2022/04/28 06:30:49;;;;;;;13.73;8.15;;;;;;;11.97;100.00;100674.00;5115031;28;20100;-75
2022/04/28 06:33:18;;;;;;;14.75;8.30;;;;;;;11.80;100.00;100672.31;5115459;28;20043;-71
2022/04/28 06:35:48;;;;;;;13.50;8.65;;;;;;;12.01;100.00;100676.38;5115464;28;20072;-73
2022/04/28 06:38:16;;;;;;;13.00;8.52;;;;;;;11.83;100.00;100668.56;5134013;28;20039;-74
2022/04/28 06:40:45;;;;;;;13.25;7.70;;;;;;;11.98;100.00;100673.03;5115342;28;20043;-69
2022/04/28 06:43:13;;;;;;;13.07;8.23;;;;;;;12.09;100.00;100672.38;5115275;28;20092;-70
2022/04/28 06:46:11;;;;;;;10.88;6.75;;;;;;;11.95;100.00;100666.03;5133583;28;20047;-70
2022/04/28 06:48:30;;;;;;;10.63;7.72;;;;;;;11.97;100.00;100680.19;5133583;28;20084;-70
2022/04/28 06:51:00;;;;;;;9.98;7.15;;;;;;;12.16;100.00;100676.41;5133470;28;20035;-70
2022/04/28 06:53:28;;;;;;;10.65;7.28;;;;;;;12.19;100.00;100673.56;5115166;28;20476;-70
2022/04/28 06:55:56;;;;;;;11.80;6.75;;;;;;;12.24;100.00;100671.44;5115062;28;20066;-72
2022/04/28 06:58:24;;;;;;;10.75;7.25;;;;;;;12.35;100.00;100670.78;5134377;27;20118;-71
2022/04/28 07:00:53;;;;;;;11.82;7.18;;;;;;;12.39;100.00;100680.38;5137724;27;20487;-72
2022/04/28 07:03:22;;;;;;;11.45;6.85;;;;;;;12.38;100.00;100668.81;5119299;27;20464;-71
2022/04/28 07:05:50;;;;;;;9.52;6.43;;;;;;;12.46;100.00;100674.56;5118952;27;20043;-72
2022/04/28 07:08:20;;;;;;;10.10;6.53;;;;;;;12.42;100.00;100675.69;5119022;27;20122;-70
2022/04/28 07:10:48;;;;;;;10.10;5.72;;;;;;;12.42;100.00;100667.66;5119062;27;20055;-75
2022/04/28 07:13:19;;;;;;;9.40;5.80;;;;;;;12.54;100.00;100674.06;5118903;27;20130;-71
2022/04/28 07:15:47;;;;;;;8.80;5.03;;;;;;;12.52;100.00;100679.53;5118531;27;20058;-70
2022/04/28 07:18:16;;;;;;;7.78;5.50;;;;;;;12.54;100.00;100677.59;5118222;27;20054;-72
2022/04/28 07:20:45;;;;;;;8.60;5.60;;;;;;;12.56;100.00;100673.03;5118313;27;20051;-71
2022/04/28 07:23:14;;;;;;;9.02;5.25;;;;;;;12.49;100.00;100682.41;5136688;27;20447;-71
2022/04/28 07:25:43;;;;;;;7.82;4.90;;;;;;;12.52;100.00;100687.53;5118566;27;20495;-71
2022/04/28 07:28:12;;;;;;;7.78;5.30;;;;;;;12.75;100.00;100687.97;5136583;27;20066;-71
2022/04/28 07:30:40;;;;;;;9.43;5.88;;;;;;;12.66;100.00;100693.88;5118287;27;20054;-70
2022/04/28 07:33:08;;;;;;;8.38;5.38;;;;;;;12.84;100.00;100696.28;5118154;27;20047;-71
2022/04/28 07:35:37;;;;;;;9.18;5.80;;;;;;;12.95;100.00;100700.09;5136765;27;20104;-71
2022/04/28 07:38:05;;;;;;;10.57;5.35;;;;;;;13.04;100.00;100695.03;5118199;27;20059;-71
2022/04/28 07:40:34;;;;;;;8.77;5.00;;;;;;;13.15;100.00;100703.22;5118339;27;20431;-71
2022/04/28 07:43:04;;;;;;;10.18;4.93;;;;;;;13.10;100.00;100705.31;5136640;27;20061;-71
2022/04/28 07:45:33;;;;;;;8.65;4.85;;;;;;;13.29;100.00;100699.69;5118536;27;20462;-71
2022/04/28 07:48:02;;;;;;;6.40;4.53;;;;;;;13.28;100.00;100707.81;5136427;27;20043;-71
2022/04/28 07:50:30;;;;;;;7.75;4.60;;;;;;;13.46;100.00;100696.78;5136826;27;20039;-71
2022/04/28 07:52:59;;;;;;;7.07;4.10;;;;;;;13.44;100.00;100711.25;5136163;27;20130;-71
2022/04/28 07:55:27;;;;;;;11.30;4.72;;;;;;;13.69;100.00;100707.81;5136379;27;20039;-71
2022/04/28 07:57:55;;;;;;;10.57;4.82;;;;;;;13.92;100.00;100701.81;5117852;27;20044;-71
2022/04/28 08:00:25;;;;;;;8.63;4.75;;;;;;;14.11;100.00;100701.41;5118253;27;20043;-70
2022/04/28 08:02:54;;;;;;;8.40;4.63;;;;;;;14.05;100.00;100699.16;5117560;27;20075;-72
2022/04/28 08:05:22;;;;;;;8.43;4.55;;;;;;;14.26;100.00;100702.19;5117894;27;20051;-70
2022/04/28 08:07:50;;;;;;;5.90;4.15;;;;;;;14.47;100.00;100705.25;5118063;27;20047;-70
2022/04/28 08:10:18;;;;;;;6.93;4.05;;;;;;;14.56;100.00;100704.63;5135896;27;20096;-70
2022/04/28 08:12:47;;;;;;;7.07;4.43;;;;;;;14.72;100.00;100701.72;5117800;27;20051;-70
2022/04/28 08:15:16;;;;;;;12.07;4.65;;;;;;;14.86;100.00;100702.50;5116991;27;20074;-70
2022/04/28 08:17:46;;;;;;;11.10;4.60;;;;;;;15.01;100.00;100713.09;5136238;27;20485;-70
2022/04/28 08:20:14;;;;;;;8.65;4.15;;;;;;;15.16;100.00;100712.88;5135754;27;20039;-70
2022/04/28 08:22:42;;;;;;;7.18;4.07;;;;;;;15.14;100.00;100712.09;5117864;27;20499;-70
2022/04/28 08:25:11;;;;;;;5.90;4.03;;;;;;;15.02;100.00;100710.28;5117233;27;20047;-70
2022/04/28 08:27:39;;;;;;;8.07;4.20;;;;;;;15.26;100.00;100715.75;5136122;27;20088;-70
2022/04/28 08:30:08;;;;;;;6.32;4.30;;;;;;;15.59;100.00;100706.19;5117134;27;20043;-70
2022/04/28 08:32:36;;;;;;;6.88;4.13;;;;;;;15.69;100.00;100715.31;5117390;27;20550;-70
2022/04/28 08:35:06;;;;;;;6.70;3.78;;;;;;;15.79;100.00;100713.66;5135493;27;20383;-70
2022/04/28 08:37:36;;;;;;;6.13;3.83;;;;;;;15.80;100.00;100711.81;5117545;27;20399;-70
2022/04/28 08:40:06;;;;;;;7.95;4.20;;;;;;;15.85;100.00;100718.59;5134969;27;20051;-70
2022/04/28 08:42:37;;;;;;;7.97;4.25;;;;;;;15.60;100.00;100714.16;5135608;27;20043;-70
2022/04/28 08:45:06;;;;;;;6.20;3.90;;;;;;;15.59;100.00;100722.31;5116761;27;20059;-70
2022/04/28 08:47:34;;;;;;;6.60;3.50;;;;;;;15.86;100.00;100714.91;5117051;27;20070;-70
2022/04/28 08:50:03;;;;;;;6.63;4.03;;;;;;;15.82;100.00;100715.25;5116219;27;20051;-70
2022/04/28 08:52:37;;;;;;;6.43;3.47;;;;;;;15.72;100.00;100724.00;5135217;27;20396;-70
2022/04/28 08:55:06;;;;;;;5.88;3.90;;;;;;;15.82;100.00;100721.47;5134519;27;20069;-70
2022/04/28 08:57:34;;;;;;;6.80;3.88;;;;;;;15.99;100.00;100723.78;5134469;27;20137;-71
2022/04/28 09:00:04;;;;;;;6.10;3.97;;;;;;;15.76;100.00;100724.66;5116394;27;20047;-71
2022/04/28 09:02:33;;;;;;;5.82;3.60;;;;;;;15.92;100.00;100725.22;5134816;27;20039;-71
2022/04/28 09:05:04;;;;;;;5.30;3.58;;;;;;;15.92;100.00;100724.34;5116203;27;20051;-71
2022/04/28 09:07:37;;;;;;;6.45;3.90;;;;;;;16.07;100.00;100727.72;5116262;27;20127;-70
2022/04/28 09:10:28;;;;;;;6.90;3.90;;;;;;;15.95;100.00;100725.00;5116623;27;20051;-71
2022/04/28 09:12:58;;;;;;;7.60;3.75;;;;;;;16.47;100.00;100723.69;5116734;27;20142;-71
2022/04/28 09:15:27;;;;;;;5.40;3.47;;;;;;;16.54;100.00;100727.66;5096086;28;20044;-71
2022/04/28 09:17:58;;;;;;;6.78;4.00;;;;;;;16.56;100.00;100719.44;5079423;28;20411;-70
2022/04/28 09:20:26;;;;;;;8.82;3.90;;;;;;;16.57;100.00;100724.69;5096043;28;20104;-70
2022/04/28 09:23:05;;;;;;;6.30;3.97;;;;;;;16.72;100.00;100720.00;5095327;28;20508;-71
2022/04/28 09:25:34;;;;;;;5.65;3.78;;;;;;;16.75;100.00;100713.50;5114433;28;20067;-70
2022/04/28 09:28:04;;;;;;;5.50;3.53;;;;;;;16.76;100.00;100715.22;5113861;28;20043;-71
2022/04/28 09:30:37;;;;;;;6.25;3.75;;;;;;;16.81;99.33;100715.72;5096471;28;20050;-70
2022/04/28 09:33:09;;;;;;;7.68;3.75;;;;;;;16.82;97.02;100715.59;5095818;28;20052;-70
2022/04/28 09:35:45;;;;;;;6.80;3.88;;;;;;;17.11;98.66;100715.13;5114076;28;20127;-70
2022/04/28 09:38:15;;;;;;;9.85;4.45;;;;;;;17.22;94.41;100720.50;5095840;28;20539;-71
2022/04/28 09:43:50;;;;;;;7.68;3.97;;;;;;;17.09;82.11;100727.88;5113902;28;20480;-71
2022/04/28 09:46:22;;;;;;;8.38;4.07;;;;;;;17.17;86.19;100718.16;5095349;28;20051;-71
2022/04/28 09:48:52;;;;;;;9.75;4.55;;;;;;;17.36;86.44;100722.06;5095459;28;20050;-71
2022/04/28 09:51:23;;;;;;;7.03;4.07;;;;;;;17.56;83.43;100724.00;5095074;28;20043;-71
2022/04/28 09:53:52;;;;;;;6.78;3.63;;;;;;;17.54;80.96;100725.97;5095625;28;20404;-70
2022/04/28 09:56:24;;;;;;;7.22;3.75;;;;;;;17.44;81.60;100719.63;5094900;28;20457;-70
2022/04/28 09:58:52;;;;;;;5.72;3.80;;;;;;;17.39;73.18;100724.53;5095310;28;20067;-70
2022/04/28 10:01:22;;;;;;;8.57;3.85;;;;;;;17.76;75.98;100722.44;5113587;28;20439;-71
2022/04/28 10:03:50;;;;;;;8.57;3.83;;;;;;;17.96;70.38;100723.47;5113482;28;20031;-71
2022/04/28 10:06:21;;;;;;;5.78;3.70;;;;;;;17.78;71.83;100727.69;5095334;28;20048;-71
2022/04/28 10:08:50;;;;;;;5.93;3.65;;;;;;;17.80;73.05;100718.47;5113403;28;20065;-71
2022/04/28 10:11:23;;;;;;;6.82;3.88;;;;;;;17.89;72.38;100727.66;5094737;28;20100;-70
2022/04/28 10:13:52;;;;;;;7.07;3.80;;;;;;;18.08;72.91;100717.03;5113286;28;20119;-71
2022/04/28 10:16:23;;;;;;;5.82;3.90;;;;;;;18.08;70.08;100721.56;5113089;28;20046;-71
2022/04/28 10:18:56;;;;;;;5.40;3.95;;;;;;;18.41;68.29;100718.69;5113153;28;20424;-71
2022/04/28 10:21:34;;;;;;;6.53;3.92;;;;;;;18.17;65.82;100721.66;5112566;28;20563;-71
2022/04/28 10:32:59;;;;;;;7.00;3.67;;;;;;;17.93;57.01;100726.41;5095708;28;20048;-69
2022/04/28 10:35:39;;;;;;;5.53;3.63;;;;;;;18.05;56.20;100722.69;5099109;28;20053;-70
2022/04/28 10:38:14;;;;;;;5.72;3.17;;;;;;;18.14;54.49;100721.88;5098975;28;20108;-71
2022/04/28 10:40:44;;;;;;;7.03;3.22;;;;;;;18.20;52.88;100726.78;5099012;28;20058;-71
2022/04/28 10:43:25;;;;;;;7.75;3.67;;;;;;;18.34;53.06;100719.38;5117357;28;20118;-70
2022/04/28 10:45:55;;;;;;;6.60;3.60;;;;;;;18.37;51.60;100719.09;5098961;28;20416;-70
2022/04/28 10:48:28;;;;;;;5.63;3.70;;;;;;;18.43;51.34;100715.84;5098608;28;20396;-70
2022/04/28 10:51:10;;;;;;;4.80;2.97;;;;;;;18.41;49.85;100725.94;5117115;28;20424;-70
2022/04/28 10:54:07;;;;;;;6.88;3.90;;;;;;;18.17;50.33;100726.19;5098550;28;20464;-70
2022/04/28 10:56:57;;;;;;;4.40;2.90;;;;;;;18.13;50.04;100735.53;5099799;28;20116;-70
2022/04/28 10:59:40;;;;;;;5.53;3.40;;;;;;;17.83;50.00;100736.25;5099866;28;20049;-70
2022/04/28 11:02:50;;;;;;;7.20;3.30;;;;;;;17.90;49.73;100723.97;5098858;28;20059;-71
2022/04/28 11:05:40;;;;;;;5.97;3.40;;;;;;;18.02;48.20;100742.69;5098656;28;20047;-70
2022/04/28 11:08:34;;;;;;;5.35;3.45;;;;;;;18.05;47.45;100732.59;5116801;28;20048;-70
2022/04/28 11:11:12;;;;;;;4.88;3.10;;;;;;;18.10;48.19;100736.66;5106346;28;20063;-70
2022/04/28 11:13:45;;;;;;;7.10;3.72;;;;;;;17.98;47.77;100748.47;5098603;28;20048;-70
2022/04/28 11:16:14;;;;;;;4.90;3.47;;;;;;;18.03;46.71;100738.13;5116833;28;20113;-70
2022/04/28 11:18:44;;;;;;;6.65;3.20;;;;;;;18.29;45.45;100739.50;5098087;28;20043;-70
2022/04/28 11:21:12;;;;;;;6.63;3.70;;;;;;;18.16;44.49;100749.66;5098147;28;20048;-71
2022/04/28 11:23:43;;;;;;;6.28;3.30;;;;;;;18.19;44.72;100743.13;5098358;28;20126;-70
2022/04/28 11:26:11;;;;;;;5.82;3.70;;;;;;;18.07;45.80;100745.00;5116346;28;20510;-71
2022/04/28 11:28:42;;;;;;;7.60;3.65;;;;;;;18.33;46.33;100732.00;5097911;28;20047;-70
2022/04/28 11:31:18;;;;;;;5.85;3.35;;;;;;;18.35;44.64;100746.25;5097635;28;20071;-73
2022/04/28 11:33:49;;;;;;;5.95;3.53;;;;;;;18.41;43.76;100734.91;5098325;28;20484;-70
2022/04/28 11:36:25;;;;;;;5.18;3.67;;;;;;;18.24;44.40;100741.75;5115863;28;20489;-71
2022/04/28 11:38:57;;;;;;;5.63;3.42;;;;;;;18.38;43.43;100745.97;5116395;28;20058;-70
2022/04/28 11:41:34;;;;;;;4.68;3.10;;;;;;;18.61;42.23;100749.41;5097284;28;20100;-70
2022/04/28 11:44:07;;;;;;;5.70;3.45;;;;;;;18.51;43.01;100745.78;5114225;28;20071;-70
2022/04/28 11:46:48;;;;;;;11.20;4.13;;;;;;;18.52;44.54;100747.50;5097900;28;20139;-71
2022/04/28 11:49:17;;;;;;;11.23;3.95;;;;;;;18.29;47.64;100754.84;5097995;28;20052;-71
2022/04/28 11:51:45;;;;;;;6.43;4.00;;;;;;;17.97;52.58;100747.63;5097833;28;20048;-70
2022/04/28 11:54:23;;;;;;;9.13;4.18;;;;;;;18.01;53.54;100754.47;5097065;28;20082;-71
2022/04/28 11:56:51;;;;;;;6.78;3.67;;;;;;;17.84;53.89;100749.59;5097048;28;20071;-70
2022/04/28 11:59:20;;;;;;;6.50;4.10;;;;;;;17.81;52.04;100740.91;5097130;28;20050;-71